Time;durP1;ratioP1;P1;durP2;ratioP2;P2;SDS_P1;SDS_P2;PMS_P1;PMS_P2;Temp;Humidity;BMP_temperature;BMP_pressure;BME280_temperature;BME280_humidity;BME280_pressure;Samples;Min_cycle;Max_cycle;Signal;HPM_P1;HPM_P2
2023/05/27 01:15:09;;;;;;;;;;;;;;;16.08;89.98;99545.66;4998296;27;20004;-96
2023/05/27 01:21:30;;;;;;;;;;;;;;;16.07;88.89;99554.41;4935699;27;19984;-96
2023/05/27 01:57:41;;;;;;;;;;;;;;;15.23;93.47;99526.16;5008093;27;19973;-96
2023/05/27 02:05:22;;;;;;;;;;;;;;;15.00;94.80;99531.13;4301657;33;36032;-96
2023/05/27 03:39:23;;;;;;;;;;;;;;;15.63;88.48;99546.03;5131360;27;19956;-96
2023/05/27 03:46:07;;;;;;;;;;;;;;;15.89;87.12;99549.72;4701882;27;19961;-96
2023/05/27 03:56:31;;;;;;;;;;;;;;;16.75;83.09;99556.75;5097418;27;19976;31
2023/05/27 04:06:21;;;;;;;;;;;;;;;17.29;80.80;99554.94;4799643;28;19999;-96
2023/05/27 04:31:15;;;;;;;;;;;;;;;19.25;71.70;99569.41;4506755;28;19992;-95
2023/05/27 04:38:45;;;;;;;;;;;;;;;20.01;70.08;99574.87;4259957;28;34486;-96
2023/05/27 04:41:53;;;;;;;;;;;;;;;19.79;68.91;99581.16;4304380;28;32966;31
2023/05/27 04:46:15;;;;;;;;;;;;;;;19.58;71.85;99571.50;4271470;28;36231;-96
2023/05/27 04:49:16;;;;;;;;;;;;;;;19.31;72.77;99580.56;4296772;28;34552;-96
2023/05/27 04:55:41;;;;;;;;;;;;;;;19.99;67.98;99576.75;4422905;28;34531;-96
2023/05/27 05:04:12;;;;;;;;;;;;;;;20.29;67.96;99579.75;4230142;28;20015;-96
2023/05/27 05:11:35;;;;;;;;;;;;;;;21.04;61.94;99598.25;4235758;28;35545;-96
2023/05/27 05:14:49;;;;;;;;;;;;;;;21.47;60.54;99601.41;4209394;34;35673;-96
2023/05/27 05:17:24;;;;;;;;;;;;;;;21.91;60.36;99606.16;4194537;34;35299;-96
2023/05/27 05:20:30;;;;;;;;;;;;;;;22.01;59.20;99602.09;4207938;34;34526;-96
2023/05/27 05:23:24;;;;;;;;;;;;;;;22.05;57.94;99603.63;4195222;34;34081;-96
2023/05/27 05:25:58;;;;;;;;;;;;;;;22.83;56.85;99602.91;4216011;34;36426;-96
2023/05/27 05:29:02;;;;;;;;;;;;;;;22.42;58.54;99603.44;4213517;28;35085;-96
2023/05/27 05:32:42;;;;;;;;;;;;;;;21.97;58.94;99605.81;4257949;28;34709;-96
2023/05/27 05:36:36;;;;;;;;;;;;;;;21.76;60.29;99614.00;4278604;28;32259;31
2023/05/27 05:39:21;;;;;;;;;;;;;;;21.90;57.16;99605.31;4222499;33;35288;-96
2023/05/27 05:46:33;;;;;;;;;;;;;;;21.20;58.01;99615.09;4250646;28;34178;-96
2023/05/27 05:49:36;;;;;;;;;;;;;;;20.94;57.66;99609.28;4390602;27;33811;-96
2023/05/27 05:53:15;;;;;;;;;;;;;;;20.93;58.00;99615.53;4242318;33;36320;-96
2023/05/27 05:55:46;;;;;;;;;;;;;;;20.76;59.42;99623.44;4232486;33;35056;-96
2023/05/27 05:58:25;;;;;;;;;;;;;;;20.93;60.17;99617.28;4230600;28;34099;-96
2023/05/27 06:00:57;;;;;;;;;;;;;;;21.19;58.29;99624.84;4274231;28;34621;-96
2023/05/27 06:03:50;;;;;;;;;;;;;;;21.12;60.00;99627.84;4259701;33;34664;-96
2023/05/27 06:06:22;;;;;;;;;;;;;;;20.36;58.77;99628.78;4264715;28;34477;-96
2023/05/27 06:09:01;;;;;;;;;;;;;;;20.48;59.87;99630.00;4284762;28;31492;-96
2023/05/27 06:12:06;;;;;;;;;;;;;;;20.60;57.54;99631.22;4267148;28;34264;-96
2023/05/27 06:16:12;;;;;;;;;;;;;;;20.41;59.46;99641.78;4419196;28;36795;-96
2023/05/27 06:19:21;;;;;;;;;;;;;;;20.72;58.44;99637.72;4293651;28;35687;-96
2023/05/27 06:22:59;;;;;;;;;;;;;;;21.06;57.14;99644.91;4290483;28;34405;-95
2023/05/27 06:26:11;;;;;;;;;;;;;;;21.39;56.36;99658.25;4366783;27;33659;-96
2023/05/27 06:30:02;;;;;;;;;;;;;;;20.56;58.38;99651.66;4282896;28;36558;31
2023/05/27 06:33:17;;;;;;;;;;;;;;;20.74;56.72;99659.69;4258567;28;35574;-96
2023/05/27 06:35:46;;;;;;;;;;;;;;;21.35;56.24;99666.41;4270186;33;33109;-96
2023/05/27 06:38:23;;;;;;;;;;;;;;;21.44;56.23;99659.81;4298949;27;33935;-96
2023/05/27 06:41:04;;;;;;;;;;;;;;;21.40;52.96;99665.25;4287814;33;34231;-95
2023/05/27 06:51:11;;;;;;;;;;;;;;;21.17;54.66;99668.19;4324073;27;35333;-96
2023/05/27 06:53:41;;;;;;;;;;;;;;;21.96;53.22;99667.75;4301938;33;35333;-96
2023/05/27 06:56:09;;;;;;;;;;;;;;;23.55;50.71;99664.31;4306567;27;34472;-96
2023/05/27 06:59:33;;;;;;;;;;;;;;;23.87;51.19;99673.03;4308821;27;33675;-96
2023/05/27 07:02:48;;;;;;;;;;;;;;;24.19;46.81;99670.19;4305337;33;34338;-96
2023/05/27 07:05:53;;;;;;;;;;;;;;;23.68;48.08;99667.94;4308333;33;35468;-95
2023/05/27 07:08:25;;;;;;;;;;;;;;;24.61;44.72;99676.47;4299708;33;34764;-96
2023/05/27 07:10:57;;;;;;;;;;;;;;;24.12;46.39;99672.38;4299016;33;32062;-96
2023/05/27 07:13:31;;;;;;;;;;;;;;;24.58;44.10;99666.88;4292034;27;33349;-96
2023/05/27 07:16:06;;;;;;;;;;;;;;;24.53;42.92;99674.31;4295776;27;35264;-96
2023/05/27 07:18:58;;;;;;;;;;;;;;;24.10;43.59;99673.44;4288055;33;35061;-96
2023/05/27 07:26:09;;;;;;;;;;;;;;;22.90;47.97;99682.13;4259641;28;35620;-96
2023/05/27 07:29:44;;;;;;;;;;;;;;;22.75;49.75;99685.66;4259156;28;36450;-94
2023/05/27 07:33:22;;;;;;;;;;;;;;;24.33;44.26;99688.81;4247688;28;33949;-96
2023/05/27 07:36:37;;;;;;;;;;;;;;;23.90;46.47;99686.16;4305343;28;31560;-96
2023/05/27 07:39:13;;;;;;;;;;;;;;;24.82;43.44;99676.06;4229007;28;31438;-95
2023/05/27 07:49:25;;;;;;;;;;;;;;;26.07;41.75;99682.81;4492169;28;34339;-96
2023/05/27 07:52:24;;;;;;;;;;;;;;;26.54;42.25;99669.72;4247293;33;34275;-96
2023/05/27 07:55:04;;;;;;;;;;;;;;;27.64;36.41;99675.94;4234790;33;33121;-96
2023/05/27 07:58:14;;;;;;;;;;;;;;;26.28;40.68;99675.13;4246086;33;35833;-96
2023/05/27 08:00:46;;;;;;;;;;;;;;;26.64;40.74;99675.28;4304913;27;32234;-94
2023/05/27 08:03:21;;;;;;;;;;;;;;;26.60;40.14;99669.28;4300713;27;34131;-96
2023/05/27 08:05:51;;;;;;;;;;;;;;;26.29;40.02;99671.50;4318288;27;32229;-95
2023/05/27 08:08:22;;;;;;;;;;;;;;;24.85;45.36;99667.84;4338889;27;35446;-95
2023/05/27 08:11:26;;;;;;;;;;;;;;;24.53;46.46;99663.66;4307128;27;32773;-96
2023/05/27 08:15:41;;;;;;;;;;;;;;;24.13;46.95;99662.62;4259603;33;33974;-95
2023/05/27 08:18:43;;;;;;;;;;;;;;;24.12;46.42;99655.56;4243004;33;35298;-95
2023/05/27 08:21:20;;;;;;;;;;;;;;;24.70;43.14;99659.06;4257320;28;35116;-95
2023/05/27 08:23:52;;;;;;;;;;;;;;;24.82;45.23;99660.94;4245158;33;33381;-96
2023/05/27 08:26:28;;;;;;;;;;;;;;;24.72;43.75;99660.66;4257830;33;34353;-96
2023/05/27 08:29:14;;;;;;;;;;;;;;;25.00;43.88;99656.19;4269064;33;35208;-94
2023/05/27 08:32:10;;;;;;;;;;;;;;;24.63;43.74;99655.94;4256324;33;35276;-95
2023/05/27 08:35:02;;;;;;;;;;;;;;;24.39;45.17;99653.84;4275115;28;34277;-95
2023/05/27 08:38:13;;;;;;;;;;;;;;;24.50;45.51;99655.00;4273459;28;35450;-96
2023/05/27 08:41:07;;;;;;;;;;;;;;;24.68;45.04;99648.50;4303643;27;35425;-96
2023/05/27 08:43:53;;;;;;;;;;;;;;;24.17;46.92;99650.81;4286683;33;35092;-95
2023/05/27 08:46:42;;;;;;;;;;;;;;;24.56;44.11;99654.62;4298323;33;33603;-96
2023/05/27 08:49:19;;;;;;;;;;;;;;;25.39;44.80;99651.88;4286368;33;34354;-96
2023/05/27 08:53:05;;;;;;;;;;;;;;;25.56;46.03;99658.75;4298078;33;35532;-96
2023/05/27 08:56:13;;;;;;;;;;;;;;;25.83;40.77;99663.16;4300257;33;34494;-96
2023/05/27 08:59:11;;;;;;;;;;;;;;;25.94;42.90;99659.75;4258658;27;1598685;-94
2023/05/27 09:01:48;;;;;;;;;;;;;;;26.63;39.51;99661.09;4281464;33;34141;-95
2023/05/27 09:04:17;;;;;;;;;;;;;;;27.23;37.94;99656.69;4281891;33;36348;-95
2023/05/27 09:06:46;;;;;;;;;;;;;;;26.57;39.64;99658.81;4271083;33;34960;-96
2023/05/27 09:09:18;;;;;;;;;;;;;;;27.26;34.74;99654.75;4283223;33;33416;-96
2023/05/27 09:12:05;;;;;;;;;;;;;;;26.69;41.31;99656.28;4297310;27;34121;-95
2023/05/27 09:14:58;;;;;;;;;;;;;;;26.74;40.31;99654.12;4305575;27;35335;-95
2023/05/27 09:17:28;;;;;;;;;;;;;;;26.12;41.99;99653.16;4288663;33;33440;-96
2023/05/27 09:20:16;;;;;;;;;;;;;;;27.20;40.66;99650.72;4299464;33;33133;-96
2023/05/27 09:23:01;;;;;;;;;;;;;;;27.49;40.35;99645.00;4297958;33;33841;-96
2023/05/27 09:26:34;;;;;;;;;;;;;;;28.10;42.10;99650.97;4590828;28;20011;-95
2023/05/27 09:29:30;;;;;;;;;;;;;;;28.80;34.41;99654.34;4301324;33;34973;-95
2023/05/27 09:35:47;;;;;;;;;;;;;;;28.20;34.79;99656.44;4304221;27;32896;-96
2023/05/27 09:39:41;;;;;;;;;;;;;;;27.74;36.65;99650.19;4327187;27;35478;-95
2023/05/27 09:43:20;;;;;;;;;;;;;;;27.01;38.52;99646.72;4310029;28;35412;31
2023/05/27 09:46:01;;;;;;;;;;;;;;;27.37;40.83;99636.97;4283028;33;33865;-95
2023/05/27 09:48:38;;;;;;;;;;;;;;;27.39;42.01;99645.72;4282447;28;33902;-96
2023/05/27 09:51:46;;;;;;;;;;;;;;;28.08;37.53;99638.66;4301988;27;35572;-96
2023/05/27 09:55:12;;;;;;;;;;;;;;;28.51;36.15;99638.78;4299760;28;1200773;-96
2023/05/27 09:58:58;;;;;;;;;;;;;;;28.76;37.37;99636.81;4317362;33;33756;-96
2023/05/27 10:02:12;;;;;;;;;;;;;;;29.37;37.03;99640.78;4313098;27;34929;-95
2023/05/27 10:04:40;;;;;;;;;;;;;;;28.97;35.26;99633.34;4309986;33;35440;-96
2023/05/27 10:07:12;;;;;;;;;;;;;;;28.97;37.08;99633.34;4291505;33;34839;-96
2023/05/27 10:10:11;;;;;;;;;;;;;;;29.70;33.09;99631.66;4277169;33;33343;-96
2023/05/27 10:13:18;;;;;;;;;;;;;;;30.28;32.60;99624.91;4301608;33;34465;-95
2023/05/27 10:16:42;;;;;;;;;;;;;;;29.87;33.37;99622.19;4309126;27;35900;-96
2023/05/27 10:19:23;;;;;;;;;;;;;;;30.43;30.65;99628.94;4283282;33;33355;-96
2023/05/27 10:21:54;;;;;;;;;;;;;;;30.34;30.31;99627.06;4283466;33;34088;-96
2023/05/27 10:24:53;;;;;;;;;;;;;;;29.22;37.54;99627.66;4306303;27;33509;-96
2023/05/27 10:27:48;;;;;;;;;;;;;;;29.49;34.03;99626.31;4315777;27;35451;-96
2023/05/27 10:30:35;;;;;;;;;;;;;;;30.06;33.60;99629.50;4288126;28;33874;-96
2023/05/27 10:33:05;;;;;;;;;;;;;;;29.58;35.80;99627.34;4308884;27;33117;-96
2023/05/27 10:36:07;;;;;;;;;;;;;;;29.95;33.41;99622.38;4298320;33;34140;-96
2023/05/27 10:38:35;;;;;;;;;;;;;;;28.83;35.31;99621.91;4299113;33;34187;-95
2023/05/27 10:41:09;;;;;;;;;;;;;;;29.75;32.26;99620.53;4305935;27;35422;-96
2023/05/27 10:43:41;;;;;;;;;;;;;;;28.65;36.20;99618.94;4308317;27;31694;-96
2023/05/27 10:46:12;;;;;;;;;;;;;;;28.71;35.54;99620.25;4313967;33;34433;-96
2023/05/27 10:48:51;;;;;;;;;;;;;;;28.70;37.13;99618.56;4306755;33;36032;-95
2023/05/27 10:51:42;;;;;;;;;;;;;;;29.10;37.26;99610.75;4315636;27;34381;-95
2023/05/27 10:55:00;;;;;;;;;;;;;;;29.16;36.27;99616.59;4322713;27;33654;-94
2023/05/27 10:58:22;;;;;;;;;;;;;;;30.09;34.28;99620.28;4314106;27;34652;-95
2023/05/27 11:01:45;;;;;;;;;;;;;;;30.51;32.09;99617.50;4286805;28;35888;-95
2023/05/27 11:04:52;;;;;;;;;;;;;;;30.94;30.66;99627.94;4249279;28;34647;-95
2023/05/27 11:07:43;;;;;;;;;;;;;;;30.93;30.07;99612.78;4305431;27;34357;-95
2023/05/27 11:10:32;;;;;;;;;;;;;;;29.95;32.40;99619.69;4296018;28;34150;-96
2023/05/27 11:13:46;;;;;;;;;;;;;;;29.10;36.11;99607.19;4279331;33;33670;-95
2023/05/27 11:16:18;;;;;;;;;;;;;;;30.56;28.44;99607.19;4284036;33;35159;-94
2023/05/27 11:18:49;;;;;;;;;;;;;;;30.34;30.72;99597.50;4293761;33;34160;-96
2023/05/27 11:21:21;;;;;;;;;;;;;;;30.79;31.12;99608.62;4279705;27;34463;-95
2023/05/27 11:24:13;;;;;;;;;;;;;;;30.37;31.69;99598.09;4351283;27;32884;-95
2023/05/27 11:26:53;;;;;;;;;;;;;;;29.79;33.44;99597.81;4288766;28;33474;-95
2023/05/27 11:30:13;;;;;;;;;;;;;;;29.17;34.09;99597.69;4306561;27;33439;-96
2023/05/27 11:32:47;;;;;;;;;;;;;;;29.57;34.34;99593.44;4312921;33;33772;-96
2023/05/27 11:35:21;;;;;;;;;;;;;;;28.52;35.93;99597.63;4293178;28;34882;-95
2023/05/27 11:38:15;;;;;;;;;;;;;;;28.51;36.12;99590.56;4299932;27;35168;-96
2023/05/27 11:40:53;;;;;;;;;;;;;;;27.92;36.29;99598.88;4304681;27;33604;-96
2023/05/27 11:43:25;;;;;;;;;;;;;;;29.72;31.18;99585.88;4311069;27;34112;-96
2023/05/27 11:46:04;;;;;;;;;;;;;;;29.14;36.10;99592.56;4302520;28;36309;-96
2023/05/27 11:49:30;;;;;;;;;;;;;;;30.00;34.78;99595.97;4321104;27;33707;31
2023/05/27 11:52:03;;;;;;;;;;;;;;;29.60;35.83;99588.66;4295084;28;33552;-96
2023/05/27 11:54:31;;;;;;;;;;;;;;;29.30;35.23;99587.63;4288229;33;34091;-96
2023/05/27 11:57:10;;;;;;;;;;;;;;;28.67;35.57;99587.50;4279545;28;35613;-96
2023/05/27 11:59:50;;;;;;;;;;;;;;;27.15;39.93;99589.56;4273591;33;34530;-96
2023/05/27 12:02:25;;;;;;;;;;;;;;;26.66;41.40;99587.88;4274614;27;32154;-96
2023/05/27 12:05:16;;;;;;;;;;;;;;;27.47;39.14;99580.91;4466388;27;33239;-96
2023/05/27 12:08:53;;;;;;;;;;;;;;;26.72;39.53;99579.44;4303248;33;35178;-95
2023/05/27 12:12:02;;;;;;;;;;;;;;;26.93;38.50;99576.97;4302927;33;33429;-96
2023/05/27 12:15:41;;;;;;;;;;;;;;;26.73;39.54;99570.44;4299916;27;32513;-95
2023/05/27 12:22:07;;;;;;;;;;;;;;;28.18;37.34;99565.56;4320912;27;33661;-96
2023/05/27 12:25:11;;;;;;;;;;;;;;;27.91;39.19;99576.63;4303567;27;34730;-95
2023/05/27 12:28:14;;;;;;;;;;;;;;;26.98;41.24;99574.78;4307565;33;34380;-96
2023/05/27 12:30:43;;;;;;;;;;;;;;;26.66;39.23;99566.50;4317357;27;33931;-96
2023/05/27 12:33:16;;;;;;;;;;;;;;;26.60;40.91;99565.13;4303209;33;34584;-96
2023/05/27 12:35:52;;;;;;;;;;;;;;;25.57;42.57;99563.59;4285003;33;33531;-96
2023/05/27 12:38:32;;;;;;;;;;;;;;;25.96;40.78;99561.78;4317840;33;31914;-96
2023/05/27 12:41:11;;;;;;;;;;;;;;;25.64;42.20;99563.06;4315434;33;34606;-95
2023/05/27 12:43:59;;;;;;;;;;;;;;;25.50;46.49;99550.69;4312082;33;35329;-96
2023/05/27 12:46:29;;;;;;;;;;;;;;;25.64;45.75;99554.19;4317875;27;34997;-96
2023/05/27 12:49:33;;;;;;;;;;;;;;;26.19;42.77;99547.66;4299812;27;33614;-96
2023/05/27 12:52:15;;;;;;;;;;;;;;;25.60;45.49;99552.72;4295019;28;32455;-96
2023/05/27 12:55:10;;;;;;;;;;;;;;;25.23;46.70;99553.41;4292216;33;36326;-96
2023/05/27 12:58:40;;;;;;;;;;;;;;;24.36;48.86;99547.56;4317030;27;34999;-96
2023/05/27 13:01:45;;;;;;;;;;;;;;;24.54;51.33;99550.03;4307093;33;34736;-96
2023/05/27 13:05:06;;;;;;;;;;;;;;;24.94;48.80;99544.72;4322609;27;33453;-96
2023/05/27 13:08:17;;;;;;;;;;;;;;;24.75;48.76;99543.28;4314830;33;35474;-96
2023/05/27 13:11:11;;;;;;;;;;;;;;;24.49;49.46;99536.13;4322549;27;35664;-96
2023/05/27 13:13:43;;;;;;;;;;;;;;;24.57;49.53;99534.72;4295219;27;34007;-95
2023/05/27 13:16:33;;;;;;;;;;;;;;;24.57;48.66;99532.03;4291222;28;34419;-95
2023/05/27 13:19:03;;;;;;;;;;;;;;;24.92;48.74;99534.19;4322800;33;34775;-95
2023/05/27 13:21:50;;;;;;;;;;;;;;;24.71;49.48;99525.81;4329687;27;34239;-96
2023/05/27 13:24:21;;;;;;;;;;;;;;;25.41;47.19;99526.47;4296699;33;32295;-96
2023/05/27 13:26:52;;;;;;;;;;;;;;;26.11;48.02;99526.00;4288133;33;33004;-95
2023/05/27 13:29:20;;;;;;;;;;;;;;;26.66;42.28;99518.44;4297168;33;35020;-95
2023/05/27 13:31:48;;;;;;;;;;;;;;;26.94;42.67;99514.53;4323420;33;34702;-96
2023/05/27 13:34:16;;;;;;;;;;;;;;;26.75;42.70;99512.41;4301771;33;32586;-94
2023/05/27 13:36:45;;;;;;;;;;;;;;;26.15;45.67;99511.44;4307174;33;34350;-95
2023/05/27 13:39:13;;;;;;;;;;;;;;;26.27;46.80;99501.69;4312863;33;36120;-96
2023/05/27 13:41:42;;;;;;;;;;;;;;;26.27;46.46;99507.03;4305535;33;34275;-94
2023/05/27 13:44:11;;;;;;;;;;;;;;;26.67;42.77;99501.44;4316983;33;33770;-95
2023/05/27 13:46:39;;;;;;;;;;;;;;;26.65;44.23;99496.22;4314408;33;34551;-95
2023/05/27 13:49:13;;;;;;;;;;;;;;;26.71;45.10;99500.25;4301677;33;35476;-96
2023/05/27 13:51:46;;;;;;;;;;;;;;;26.32;45.02;99490.69;4295424;33;33408;-96
2023/05/27 13:54:20;;;;;;;;;;;;;;;26.08;46.32;99492.38;4298922;28;34303;-96
2023/05/27 13:56:55;;;;;;;;;;;;;;;26.17;43.95;99490.87;4282973;28;34997;-96
2023/05/27 13:59:26;;;;;;;;;;;;;;;25.52;46.72;99498.13;4300429;33;35371;-95
2023/05/27 14:02:05;;;;;;;;;;;;;;;25.31;48.74;99492.47;4304730;27;33827;-96
2023/05/27 14:04:36;;;;;;;;;;;;;;;25.38;47.47;99492.91;4311785;33;33657;-96
2023/05/27 14:07:12;;;;;;;;;;;;;;;25.25;46.80;99487.53;4311731;33;34141;-94
2023/05/27 14:09:43;;;;;;;;;;;;;;;25.71;48.80;99479.00;4317143;27;35433;-94
2023/05/27 14:12:13;;;;;;;;;;;;;;;25.39;45.69;99483.94;4298770;33;33547;-96
2023/05/27 14:14:59;;;;;;;;;;;;;;;25.10;47.45;99473.44;4305686;33;33076;-96
2023/05/27 14:17:39;;;;;;;;;;;;;;;24.71;47.43;99469.88;4314312;33;34278;-96
2023/05/27 14:20:37;;;;;;;;;;;;;;;24.34;46.38;99468.81;4294949;28;35177;-96
2023/05/27 14:23:12;;;;;;;;;;;;;;;24.55;48.22;99463.91;4259132;33;35429;-96
2023/05/27 14:25:43;;;;;;;;;;;;;;;24.97;48.85;99459.25;4338485;28;33278;-96
2023/05/27 14:28:15;;;;;;;;;;;;;;;24.90;48.86;99463.31;4293824;33;34104;-96
2023/05/27 14:30:53;;;;;;;;;;;;;;;24.28;49.28;99459.37;4287222;33;35350;-96
2023/05/27 14:34:11;;;;;;;;;;;;;;;24.42;47.15;99459.34;4292008;33;35869;-96
2023/05/27 14:37:01;;;;;;;;;;;;;;;24.53;49.20;99457.75;4299192;27;33935;-96
2023/05/27 14:39:39;;;;;;;;;;;;;;;24.29;49.73;99458.44;4319489;27;33911;-94
2023/05/27 14:42:11;;;;;;;;;;;;;;;24.12;47.47;99458.69;4318192;33;35529;-96
2023/05/27 14:44:52;;;;;;;;;;;;;;;24.53;45.70;99452.44;4303166;33;34124;-95
2023/05/27 14:47:33;;;;;;;;;;;;;;;24.74;47.43;99451.06;4287648;33;31865;-95
2023/05/27 14:50:02;;;;;;;;;;;;;;;24.59;48.41;99452.06;4307076;33;34058;-95
2023/05/27 14:52:51;;;;;;;;;;;;;;;24.38;47.23;99439.19;4303092;33;35527;-95
2023/05/27 14:55:31;;;;;;;;;;;;;;;25.04;45.99;99447.22;4302843;27;34983;-94
2023/05/27 14:58:10;;;;;;;;;;;;;;;25.37;46.05;99437.03;4321137;33;33681;-96
2023/05/27 15:01:01;;;;;;;;;;;;;;;25.57;45.94;99433.78;4317573;33;32808;-95
2023/05/27 15:04:27;;;;;;;;;;;;;;;25.39;46.01;99429.75;4309332;27;33942;-95
2023/05/27 15:07:04;;;;;;;;;;;;;;;25.67;43.78;99431.31;4354209;28;35144;-96
2023/05/27 15:09:32;;;;;;;;;;;;;;;25.52;45.40;99428.78;4286995;33;34259;-95
2023/05/27 15:12:21;;;;;;;;;;;;;;;25.49;44.58;99420.16;4299935;33;33875;-95
2023/05/27 15:14:54;;;;;;;;;;;;;;;24.84;47.26;99423.78;4291445;27;35310;-94
2023/05/27 15:17:35;;;;;;;;;;;;;;;24.78;46.90;99425.06;4304957;33;34861;-96
2023/05/27 15:20:06;;;;;;;;;;;;;;;24.59;46.31;99425.44;4298749;33;32052;-94
2023/05/27 15:23:07;;;;;;;;;;;;;;;24.73;44.52;99428.03;4318331;33;35461;-96
2023/05/27 15:25:57;;;;;;;;;;;;;;;24.27;47.09;99420.44;4319699;27;36337;-96
2023/05/27 15:28:45;;;;;;;;;;;;;;;24.12;47.30;99416.13;4297837;33;34047;-95
2023/05/27 15:32:13;;;;;;;;;;;;;;;24.60;47.81;99420.03;4297721;27;33516;-96
2023/05/27 15:34:52;;;;;;;;;;;;;;;24.85;47.99;99420.13;4305353;27;34424;-95
2023/05/27 15:38:13;;;;;;;;;;;;;;;24.44;46.96;99426.44;4303198;27;34437;-95
2023/05/27 15:41:21;;;;;;;;;;;;;;;24.63;45.98;99418.09;4275382;28;33451;-95
2023/05/27 15:43:56;;;;;;;;;;;;;;;24.37;46.34;99415.34;4289269;28;33566;-96
2023/05/27 15:46:28;;;;;;;;;;;;;;;23.97;49.08;99418.84;4261732;28;34606;-94
2023/05/27 15:49:19;;;;;;;;;;;;;;;24.26;45.72;99417.88;4268139;33;35733;-95
2023/05/27 15:52:05;;;;;;;;;;;;;;;24.32;47.42;99406.81;4254831;33;32806;-95
2023/05/27 15:54:56;;;;;;;;;;;;;;;24.37;47.73;99413.56;4254982;33;32774;-95
2023/05/27 15:57:30;;;;;;;;;;;;;;;24.57;48.61;99414.06;4256148;33;35113;-94
2023/05/27 16:00:24;;;;;;;;;;;;;;;24.23;46.90;99418.94;4259146;28;34600;-95
2023/05/27 16:03:35;;;;;;;;;;;;;;;24.53;46.80;99409.84;4276217;28;35907;-94
2023/05/27 16:07:06;;;;;;;;;;;;;;;24.80;46.14;99407.16;4333837;28;33977;-93
2023/05/27 16:10:25;;;;;;;;;;;;;;;24.52;46.79;99408.16;4270720;28;32794;-95
2023/05/27 16:12:59;;;;;;;;;;;;;;;24.78;45.39;99404.59;4283517;33;36545;-94
2023/05/27 16:15:47;;;;;;;;;;;;;;;25.03;44.65;99400.22;4281905;33;35277;-96
2023/05/27 16:18:38;;;;;;;;;;;;;;;24.61;45.01;99402.22;4293961;33;33554;-95
2023/05/27 16:21:11;;;;;;;;;;;;;;;24.68;47.04;99400.84;4323480;27;34058;-94
2023/05/27 16:24:23;;;;;;;;;;;;;;;24.49;46.34;99411.84;4308174;33;35685;-94
2023/05/27 16:26:56;;;;;;;;;;;;;;;24.14;48.16;99400.91;4315349;33;33656;-95
2023/05/27 16:29:53;;;;;;;;;;;;;;;24.18;47.85;99395.28;4305000;27;31818;-95
2023/05/27 16:32:27;;;;;;;;;;;;;;;24.04;47.51;99404.19;4307301;33;35497;-95
2023/05/27 16:35:25;;;;;;;;;;;;;;;24.15;47.44;99395.50;4324851;27;36127;-95
2023/05/27 16:38:13;;;;;;;;;;;;;;;24.16;46.77;99397.22;4304241;33;34785;-95
2023/05/27 16:40:46;;;;;;;;;;;;;;;23.91;45.22;99403.25;4303855;33;34125;-94
2023/05/27 16:43:28;;;;;;;;;;;;;;;23.77;46.58;99395.28;4318423;28;34987;-96
2023/05/27 16:46:00;;;;;;;;;;;;;;;23.98;46.18;99401.94;4311571;27;35965;-95
2023/05/27 16:48:36;;;;;;;;;;;;;;;23.83;47.11;99406.44;4306179;27;34378;-94
2023/05/27 16:51:19;;;;;;;;;;;;;;;24.19;46.11;99399.66;4309176;27;33985;-96
2023/05/27 16:54:06;;;;;;;;;;;;;;;23.73;47.61;99407.94;4307264;27;35006;-94
2023/05/27 16:57:12;;;;;;;;;;;;;;;24.09;48.96;99397.69;4321486;27;35487;-94
2023/05/27 17:00:03;;;;;;;;;;;;;;;23.97;47.94;99400.22;4394654;27;36063;-96
2023/05/27 17:02:47;;;;;;;;;;;;;;;24.41;44.83;99401.75;4302247;33;33692;-94
2023/05/27 17:05:36;;;;;;;;;;;;;;;24.16;45.63;99404.31;4329115;27;34634;-93
2023/05/27 17:08:15;;;;;;;;;;;;;;;24.16;44.37;99401.66;4301650;28;35572;-94
2023/05/27 17:11:22;;;;;;;;;;;;;;;24.06;45.38;99405.91;4296980;33;34630;-94
2023/05/27 17:13:55;;;;;;;;;;;;;;;23.65;46.80;99402.28;4313639;27;33392;-93
2023/05/27 17:16:40;;;;;;;;;;;;;;;23.59;46.79;99407.97;4308888;27;34434;-94
2023/05/27 17:19:59;;;;;;;;;;;;;;;23.58;46.41;99403.62;4300701;27;35760;-94
2023/05/27 17:22:53;;;;;;;;;;;;;;;23.63;47.06;99401.50;4305021;33;36863;-95
2023/05/27 17:25:54;;;;;;;;;;;;;;;23.42;48.10;99407.25;4299857;33;33739;-93
2023/05/27 17:29:16;;;;;;;;;;;;;;;23.03;47.26;99410.50;4321040;33;34618;-94
2023/05/27 17:32:02;;;;;;;;;;;;;;;23.30;47.13;99412.47;4318444;27;35232;-94
2023/05/27 17:35:04;;;;;;;;;;;;;;;23.18;48.19;99406.13;4308338;27;35137;-95
2023/05/27 17:42:47;;;;;;;;;;;;;;;22.90;47.59;99416.56;4295444;27;35527;-93
2023/05/27 17:46:36;;;;;;;;;;;;;;;22.64;48.26;99420.81;4296315;33;36079;-93
2023/05/27 17:49:58;;;;;;;;;;;;;;;22.53;49.10;99418.78;4324795;27;35025;-95
2023/05/27 17:56:54;;;;;;;;;;;;;;;22.41;49.85;99427.44;4281323;27;34487;-93
2023/05/27 18:00:44;;;;;;;;;;;;;;;22.68;48.48;99432.09;4270096;33;34989;-94
2023/05/27 18:03:57;;;;;;;;;;;;;;;22.21;48.58;99439.19;4257877;33;34992;-93
2023/05/27 18:07:47;;;;;;;;;;;;;;;21.90;49.91;99442.72;4283738;28;34741;-94
2023/05/27 18:11:41;;;;;;;;;;;;;;;21.56;51.60;99447.22;4302357;27;34456;-95
2023/05/27 18:15:00;;;;;;;;;;;;;;;21.41;52.85;99443.59;4293425;28;35340;-96
2023/05/27 18:18:14;;;;;;;;;;;;;;;21.02;55.02;99448.28;4271717;28;35242;-96
2023/05/27 18:22:19;;;;;;;;;;;;;;;20.80;56.75;99447.66;4281717;28;33932;-95
2023/05/27 18:25:48;;;;;;;;;;;;;;;20.42;58.42;99450.44;4281129;28;33652;-95
2023/05/27 18:28:17;;;;;;;;;;;;;;;19.80;58.64;99455.16;4278941;33;35794;-95
2023/05/27 18:30:48;;;;;;;;;;;;;;;19.52;58.57;99452.00;4267059;33;34301;-94
2023/05/27 18:33:45;;;;;;;;;;;;;;;19.27;60.09;99449.63;4280440;33;34119;-95
2023/05/27 18:36:15;;;;;;;;;;;;;;;19.02;60.90;99454.25;4265572;33;33927;-96
2023/05/27 18:38:46;;;;;;;;;;;;;;;18.95;60.42;99458.94;4277270;33;35767;-94
2023/05/27 18:41:14;;;;;;;;;;;;;;;19.67;58.25;99454.84;4277931;33;35084;-94
2023/05/27 18:43:49;;;;;;;;;;;;;;;19.25;59.50;99458.50;4279093;33;34193;-95
2023/05/27 18:46:20;;;;;;;;;;;;;;;19.16;59.35;99467.69;4284669;33;33337;-95
2023/05/27 18:48:55;;;;;;;;;;;;;;;19.69;58.28;99472.34;4269609;33;35322;-95
2023/05/27 18:51:36;;;;;;;;;;;;;;;19.54;58.46;99469.56;4287630;27;35391;-92
2023/05/27 18:54:10;;;;;;;;;;;;;;;19.44;58.78;99469.97;4278540;33;33060;-95
2023/05/27 18:56:42;;;;;;;;;;;;;;;19.34;59.54;99468.66;4280357;33;34507;-93
2023/05/27 18:59:19;;;;;;;;;;;;;;;18.99;60.97;99484.28;4276111;33;35112;-94
2023/05/27 19:01:54;;;;;;;;;;;;;;;19.20;59.64;99486.88;4258818;33;35006;-95
2023/05/27 19:04:31;;;;;;;;;;;;;;;18.12;61.61;99491.31;4286866;33;33545;-94
2023/05/27 19:07:04;;;;;;;;;;;;;;;17.31;66.05;99493.47;4276400;33;34375;-94
2023/05/27 19:09:40;;;;;;;;;;;;;;;17.19;66.46;99491.25;4281993;33;35987;-93
2023/05/27 19:12:18;;;;;;;;;;;;;;;17.00;66.97;99494.53;4269162;33;33011;-95
2023/05/27 19:15:04;;;;;;;;;;;;;;;16.60;68.93;99484.47;4267479;33;33397;-95
2023/05/27 19:17:37;;;;;;;;;;;;;;;16.53;70.87;99489.06;4283196;33;33831;-95
2023/05/27 19:20:12;;;;;;;;;;;;;;;16.37;71.91;99491.31;4287481;27;35287;-95
2023/05/27 19:23:03;;;;;;;;;;;;;;;16.44;70.57;99494.62;4290959;33;34968;-94
2023/05/27 19:26:33;;;;;;;;;;;;;;;16.95;68.45;99487.72;4330729;27;32959;-96
2023/05/27 19:29:08;;;;;;;;;;;;;;;16.96;68.18;99503.44;4278548;33;34281;-96
2023/05/27 19:32:05;;;;;;;;;;;;;;;16.34;69.34;99501.97;4306098;33;36279;-96
2023/05/27 19:34:44;;;;;;;;;;;;;;;15.84;73.09;99499.09;4285606;28;35545;-95
2023/05/27 19:37:28;;;;;;;;;;;;;;;15.84;74.43;99496.47;4302460;27;33666;-95
2023/05/27 19:43:22;;;;;;;;;;;;;;;16.74;70.04;99498.00;4329531;27;35410;-95
2023/05/27 19:46:00;;;;;;;;;;;;;;;16.26;72.31;99496.91;4369226;27;34832;-96
2023/05/27 19:49:11;;;;;;;;;;;;;;;15.65;72.88;99497.00;4309003;33;33844;-95
2023/05/27 19:52:27;;;;;;;;;;;;;;;15.54;74.70;99491.19;4319796;27;35331;-95
2023/05/27 19:56:09;;;;;;;;;;;;;;;15.51;75.44;99491.25;4315866;33;36256;-95
2023/05/27 19:58:45;;;;;;;;;;;;;;;16.48;71.68;99493.59;4314373;33;34381;-95
2023/05/27 20:01:38;;;;;;;;;;;;;;;16.82;69.59;99490.72;4326577;27;33814;-94
2023/05/27 20:04:08;;;;;;;;;;;;;;;16.56;71.18;99524.91;4310762;33;33898;-94